Town N Country, Florida
Current Conditions -  °F | °C
As of 2:53 PM on Thursday 27 Nov 2014 (Local Time) from KTPA Reporting Station
Clear Clear  
Wind Chill: 65°   Ceiling: Unl
Heat Index: 65°   Visibility: 10mi
Dew Point: 40°   Wind: 17mph
Humidity: 40%   Direction: 340°NNW
Pressure: 30.22"   Gusts: 25mph
Location:  28.0044°N, 82.584°W
Report Text: KTPA 271953Z 34015G22KT 10SM CLR 18/04 A3022 RMK AO2 SLP232 T01830044
Loading
Personal Weather Stations






























Interactive Weather Map New forecast layout! Learn more

10-Day Weather Forecast

Advertisements
Track Severe Weather on mobile